createdAt,value
2023-08-17T00:01:17.668Z,5.53
2023-08-17T00:03:44.323Z,6.03
2023-08-17T00:06:11.087Z,6.32
2023-08-17T00:08:37.632Z,5.80
2023-08-17T00:11:04.664Z,5.72
2023-08-17T00:13:31.253Z,6.88
2023-08-17T00:15:58.044Z,5.55
2023-08-17T00:18:24.724Z,5.57
2023-08-17T00:20:51.295Z,5.18
2023-08-17T00:23:17.852Z,5.13
2023-08-17T00:25:44.417Z,5.82
2023-08-17T00:28:11.027Z,5.95
2023-08-17T00:30:38.864Z,5.68
2023-08-17T00:33:05.817Z,5.30
2023-08-17T00:35:33.682Z,6.93
2023-08-17T00:38:01.033Z,6.82
2023-08-17T00:40:27.654Z,5.85
2023-08-17T00:42:54.256Z,4.45
2023-08-17T00:45:22.490Z,5.28
2023-08-17T00:47:49.187Z,5.85
2023-08-17T00:50:16.789Z,5.22
2023-08-17T00:52:43.816Z,5.88
2023-08-17T00:55:12.237Z,6.82
2023-08-17T00:57:38.866Z,5.40
2023-08-17T01:00:07.087Z,5.65
2023-08-17T01:02:34.312Z,5.32
2023-08-17T01:05:01.656Z,4.38
2023-08-17T01:07:28.739Z,4.90
2023-08-17T01:09:55.745Z,5.50
2023-08-17T01:12:33.203Z,5.53
2023-08-17T01:15:18.484Z,5.55
2023-08-17T01:17:51.122Z,6.30
2023-08-17T01:20:18.960Z,7.05
2023-08-17T01:22:48.723Z,5.95
2023-08-17T01:25:15.286Z,5.75
2023-08-17T01:27:46.599Z,5.30
2023-08-17T01:30:18.514Z,5.67
2023-08-17T01:32:57.919Z,5.90
2023-08-17T01:35:47.610Z,4.93
2023-08-17T01:38:19.287Z,6.13
2023-08-17T01:40:50.745Z,6.07
2023-08-17T01:45:45.014Z,5.70
2023-08-17T01:48:11.849Z,5.53
2023-08-17T01:50:38.437Z,4.80
2023-08-17T01:53:05.188Z,5.80
2023-08-17T01:55:33.292Z,5.43
2023-08-17T01:58:00.170Z,4.88
2023-08-17T02:00:26.808Z,6.15
2023-08-17T02:02:53.374Z,5.28
2023-08-17T02:05:20.004Z,4.80
2023-08-17T02:07:46.674Z,5.25
2023-08-17T02:10:13.245Z,5.28
2023-08-17T02:12:39.789Z,6.53
2023-08-17T02:15:06.926Z,4.63
2023-08-17T02:17:33.602Z,5.30
2023-08-17T02:20:00.278Z,4.63
2023-08-17T02:22:27.086Z,6.75
2023-08-17T02:24:55.276Z,5.28
2023-08-17T02:27:22.920Z,7.43
2023-08-17T02:29:49.542Z,4.68
2023-08-17T02:32:16.099Z,5.60
2023-08-17T02:34:42.729Z,5.97
2023-08-17T02:37:09.285Z,5.95
2023-08-17T02:39:36.163Z,6.57
2023-08-17T02:42:02.705Z,6.65
2023-08-17T02:44:31.540Z,5.80
2023-08-17T02:46:58.077Z,4.45
2023-08-17T02:49:24.708Z,4.00
2023-08-17T02:51:51.323Z,5.15
2023-08-17T02:54:17.903Z,5.47
2023-08-17T02:56:44.476Z,5.13
2023-08-17T02:59:11.045Z,3.90
2023-08-17T03:01:37.665Z,5.97
2023-08-17T03:04:04.459Z,6.47
2023-08-17T03:06:31.033Z,6.20
2023-08-17T03:08:57.614Z,5.03
2023-08-17T03:11:24.196Z,5.78
2023-08-17T03:13:50.817Z,6.03
2023-08-17T03:16:17.483Z,5.65
2023-08-17T03:18:45.648Z,5.30
2023-08-17T03:21:13.030Z,4.75
2023-08-17T03:23:39.683Z,4.43
2023-08-17T03:26:06.267Z,4.35
2023-08-17T03:28:32.858Z,5.75
2023-08-17T03:30:59.536Z,5.47
2023-08-17T03:33:26.287Z,6.05
2023-08-17T03:35:52.957Z,6.72
2023-08-17T03:38:19.677Z,6.10
2023-08-17T03:40:50.135Z,5.85
2023-08-17T03:43:16.827Z,5.15
2023-08-17T03:45:43.953Z,6.85
2023-08-17T03:48:11.084Z,6.05
2023-08-17T03:50:37.752Z,5.88
2023-08-17T03:53:05.732Z,5.22
2023-08-17T03:55:32.433Z,6.20
2023-08-17T03:57:59.018Z,6.32
2023-08-17T04:00:25.572Z,5.65
2023-08-17T04:02:57.820Z,5.90
2023-08-17T04:05:24.399Z,5.10
2023-08-17T04:07:51.030Z,6.70
2023-08-17T04:10:17.606Z,5.78
2023-08-17T04:12:44.347Z,6.80
2023-08-17T04:15:11.129Z,7.25
2023-08-17T04:17:37.713Z,6.93
2023-08-17T04:20:07.766Z,5.63
2023-08-17T04:22:34.450Z,5.97
2023-08-17T04:25:01.041Z,5.80
2023-08-17T04:27:27.984Z,5.70
2023-08-17T04:29:54.928Z,5.32
2023-08-17T04:32:22.105Z,5.32
2023-08-17T04:34:49.323Z,4.95
2023-08-17T04:37:16.803Z,6.22
2023-08-17T04:39:44.718Z,5.90
2023-08-17T04:42:17.162Z,4.60
2023-08-17T04:44:44.587Z,5.40
2023-08-17T04:47:11.601Z,6.47
2023-08-17T04:49:38.899Z,6.55
2023-08-17T04:52:05.888Z,5.93
2023-08-17T04:54:32.660Z,5.28
2023-08-17T04:56:59.225Z,5.38
2023-08-17T04:59:25.963Z,5.53
2023-08-17T05:01:53.288Z,5.53
2023-08-17T05:04:19.864Z,7.20
2023-08-17T05:06:46.478Z,6.88
2023-08-17T05:09:13.302Z,6.18
2023-08-17T05:11:41.339Z,6.50
2023-08-17T05:14:08.205Z,7.10
2023-08-17T05:16:34.979Z,6.65
2023-08-17T05:19:01.744Z,5.78
2023-08-17T05:21:29.036Z,4.32
2023-08-17T05:23:55.675Z,5.93
2023-08-17T05:26:23.233Z,6.97
2023-08-17T05:28:49.802Z,6.03
2023-08-17T05:31:16.627Z,5.93
2023-08-17T05:33:48.165Z,7.23
2023-08-17T05:36:15.562Z,5.18
2023-08-17T05:38:42.189Z,4.68
2023-08-17T05:41:08.793Z,5.15
2023-08-17T05:43:35.407Z,5.15
2023-08-17T05:46:02.160Z,4.55
2023-08-17T05:48:28.764Z,5.57
2023-08-17T05:50:57.408Z,5.82
2023-08-17T05:53:23.970Z,5.43
2023-08-17T05:55:51.604Z,6.13
2023-08-17T05:58:18.282Z,5.40
2023-08-17T06:00:44.861Z,5.07
2023-08-17T06:03:11.841Z,5.85
2023-08-17T06:05:38.657Z,5.35
2023-08-17T06:08:05.589Z,6.35
2023-08-17T06:10:32.117Z,5.00
2023-08-17T06:12:59.029Z,6.40
2023-08-17T06:15:25.945Z,6.22
2023-08-17T06:17:52.605Z,5.38
2023-08-17T06:20:19.615Z,5.15
2023-08-17T06:22:49.322Z,6.20
2023-08-17T06:25:16.077Z,5.47
2023-08-17T06:27:43.198Z,5.57
2023-08-17T06:30:10.422Z,6.47
2023-08-17T06:32:37.018Z,5.65
2023-08-17T06:35:03.922Z,5.40
2023-08-17T06:37:30.525Z,5.07
2023-08-17T06:39:57.076Z,6.53
2023-08-17T06:42:23.650Z,5.57
2023-08-17T06:44:50.302Z,5.90
2023-08-17T06:47:16.864Z,5.15
2023-08-17T06:49:43.525Z,6.40
2023-08-17T06:52:10.175Z,5.70
2023-08-17T06:54:36.846Z,6.05
2023-08-17T06:57:03.403Z,5.70
2023-08-17T06:59:29.989Z,5.35
2023-08-17T07:01:57.996Z,5.55
2023-08-17T07:04:24.647Z,5.32
2023-08-17T07:06:51.615Z,5.60
2023-08-17T07:09:18.260Z,5.25
2023-08-17T07:11:44.943Z,5.47
2023-08-17T07:14:11.529Z,5.82
2023-08-17T07:16:38.161Z,5.63
2023-08-17T07:19:05.412Z,5.30
2023-08-17T07:21:32.118Z,4.90
2023-08-17T07:23:58.661Z,5.28
2023-08-17T07:26:25.297Z,5.32
2023-08-17T07:28:51.847Z,5.15
2023-08-17T07:31:18.465Z,4.93
2023-08-17T07:33:45.049Z,4.80
2023-08-17T07:36:11.683Z,4.53
2023-08-17T07:38:38.234Z,4.97
2023-08-17T07:41:04.828Z,5.28
2023-08-17T07:43:31.472Z,5.97
2023-08-17T07:45:58.500Z,4.35
2023-08-17T07:48:25.232Z,4.22
2023-08-17T07:50:53.039Z,4.35
2023-08-17T07:53:20.470Z,5.00
2023-08-17T07:55:47.148Z,3.90
2023-08-17T07:58:14.063Z,4.38
2023-08-17T08:00:40.694Z,4.75
2023-08-17T08:03:07.317Z,4.88
2023-08-17T08:05:33.997Z,4.35
2023-08-17T08:08:00.651Z,4.82
2023-08-17T08:10:28.830Z,4.93
2023-08-17T08:12:56.066Z,4.40
2023-08-17T08:15:22.729Z,4.53
2023-08-17T08:17:49.409Z,4.35
2023-08-17T08:20:16.054Z,3.75
2023-08-17T08:22:42.685Z,4.68
2023-08-17T08:25:09.267Z,4.55
2023-08-17T08:27:35.835Z,4.78
2023-08-17T08:30:02.384Z,4.22
2023-08-17T08:32:30.844Z,4.70
2023-08-17T08:34:57.601Z,4.53
2023-08-17T08:37:25.225Z,4.75
2023-08-17T08:39:56.612Z,4.30
2023-08-17T08:42:26.032Z,3.78
2023-08-17T08:44:52.682Z,3.85
2023-08-17T08:47:19.762Z,4.05
2023-08-17T08:50:03.325Z,3.70
2023-08-17T08:52:41.624Z,4.10
2023-08-17T08:55:18.724Z,3.97
2023-08-17T08:57:51.791Z,4.38
2023-08-17T09:00:19.401Z,3.28
2023-08-17T09:02:46.969Z,3.95
2023-08-17T09:05:15.096Z,4.00
2023-08-17T09:07:43.574Z,4.07
2023-08-17T09:10:11.625Z,4.00
2023-08-17T09:12:41.295Z,4.13
2023-08-17T09:15:09.012Z,3.50
2023-08-17T09:17:35.756Z,3.92
2023-08-17T09:20:02.589Z,3.88
2023-08-17T09:22:40.256Z,3.67
2023-08-17T09:25:07.849Z,3.60
2023-08-17T09:27:34.488Z,3.90
2023-08-17T09:30:08.259Z,4.07
2023-08-17T09:32:35.228Z,4.47
2023-08-17T09:35:06.625Z,4.47
2023-08-17T09:37:34.221Z,3.88
2023-08-17T09:40:01.513Z,4.18
2023-08-17T09:42:29.162Z,3.83
2023-08-17T09:44:56.690Z,3.70
2023-08-17T09:47:23.981Z,4.15
2023-08-17T09:49:53.161Z,3.83
2023-08-17T09:52:25.279Z,3.60
2023-08-17T09:54:53.447Z,3.47
2023-08-17T09:57:22.927Z,3.60
2023-08-17T09:59:54.066Z,3.47
2023-08-17T10:02:25.055Z,3.72
2023-08-17T10:04:58.872Z,3.35
2023-08-17T10:07:34.330Z,3.47
2023-08-17T10:10:04.333Z,3.88
2023-08-17T10:12:37.272Z,3.15
2023-08-17T10:15:11.820Z,3.80
2023-08-17T10:17:55.932Z,3.22
2023-08-17T10:20:24.348Z,4.60
2023-08-17T10:23:02.038Z,3.95
2023-08-17T10:25:28.800Z,3.92
2023-08-17T10:28:00.067Z,3.88
2023-08-17T10:30:27.067Z,4.03
2023-08-17T10:32:53.711Z,3.70
2023-08-17T10:35:20.648Z,3.40
2023-08-17T10:37:47.690Z,4.07
2023-08-17T10:40:15.765Z,3.45
2023-08-17T10:42:42.622Z,3.63
2023-08-17T10:45:30.795Z,3.70
2023-08-17T10:48:01.237Z,3.70
2023-08-17T10:50:27.870Z,4.05
2023-08-17T10:52:55.182Z,3.80
2023-08-17T10:55:42.000Z,3.20
2023-08-17T10:58:15.092Z,3.05
2023-08-17T11:00:43.252Z,3.25
2023-08-17T11:03:18.128Z,3.22
2023-08-17T11:05:56.771Z,3.50
2023-08-17T11:08:34.528Z,3.50
2023-08-17T11:11:10.629Z,3.25
2023-08-17T11:13:39.962Z,3.15
2023-08-17T11:16:08.508Z,3.10
2023-08-17T11:18:35.834Z,3.60
2023-08-17T11:21:10.406Z,3.08
2023-08-17T11:23:38.227Z,3.50
2023-08-17T11:26:05.536Z,3.00
2023-08-17T11:28:42.533Z,2.63
2023-08-17T11:31:11.762Z,2.83
2023-08-17T11:33:40.870Z,3.00
2023-08-17T11:36:10.753Z,3.33
2023-08-17T11:38:42.194Z,2.92
2023-08-17T11:41:10.108Z,3.40
2023-08-17T11:43:38.491Z,3.45
2023-08-17T11:46:06.279Z,3.40
2023-08-17T11:51:02.989Z,3.88
2023-08-17T11:53:37.682Z,3.63
2023-08-17T11:56:07.089Z,4.10
2023-08-17T11:58:45.473Z,3.35
2023-08-17T12:01:14.085Z,3.78
2023-08-17T12:03:42.248Z,3.08
2023-08-17T12:06:10.225Z,3.38
2023-08-17T12:08:36.876Z,3.55
2023-08-17T12:11:04.352Z,3.42
2023-08-17T12:13:35.624Z,3.30
2023-08-17T12:16:02.947Z,4.45
2023-08-17T12:18:30.061Z,3.50
2023-08-17T12:20:57.015Z,3.60
2023-08-17T12:23:23.701Z,3.28
2023-08-17T12:25:56.990Z,3.33
2023-08-17T12:28:25.255Z,3.38
2023-08-17T12:31:03.359Z,3.58
2023-08-17T12:33:30.280Z,3.22
2023-08-17T12:35:57.180Z,3.17
2023-08-17T12:38:26.303Z,3.72
2023-08-17T12:40:53.328Z,3.35
2023-08-17T12:43:20.043Z,3.13
2023-08-17T12:45:46.623Z,3.17
2023-08-17T12:48:13.661Z,3.38
2023-08-17T12:50:43.861Z,3.53
2023-08-17T12:55:37.459Z,3.08
2023-08-17T12:58:04.233Z,2.80
2023-08-17T13:00:30.807Z,3.47
2023-08-17T13:02:57.443Z,2.38
2023-08-17T13:05:24.096Z,3.28
2023-08-17T13:07:50.708Z,3.30
2023-08-17T13:10:17.335Z,3.10
2023-08-17T13:12:43.941Z,3.75
2023-08-17T13:15:10.627Z,3.97
2023-08-17T13:17:37.241Z,3.25
2023-08-17T13:20:06.282Z,3.30
2023-08-17T13:22:33.591Z,2.72
2023-08-17T13:25:00.232Z,2.83
2023-08-17T13:27:26.831Z,2.78
2023-08-17T13:29:53.482Z,2.92
2023-08-17T13:32:20.252Z,3.72
2023-08-17T13:34:46.962Z,2.78
2023-08-17T13:37:13.535Z,2.85
2023-08-17T13:39:40.106Z,2.97
2023-08-17T13:42:06.795Z,3.20
2023-08-17T13:44:33.350Z,3.00
2023-08-17T13:46:59.935Z,3.35
2023-08-17T13:49:26.618Z,3.20
2023-08-17T13:51:53.256Z,3.10
2023-08-17T13:54:19.836Z,2.75
2023-08-17T13:56:46.599Z,2.90
2023-08-17T13:59:13.154Z,2.60
2023-08-17T14:01:39.859Z,2.65
2023-08-17T14:04:12.375Z,3.45
2023-08-17T14:06:39.844Z,2.97
2023-08-17T14:09:06.487Z,3.03
2023-08-17T14:11:33.205Z,3.50
2023-08-17T14:13:59.804Z,2.90
2023-08-17T14:16:26.478Z,3.00
2023-08-17T14:18:53.600Z,2.72
2023-08-17T14:21:20.165Z,2.83
2023-08-17T14:23:47.706Z,2.58
2023-08-17T14:26:14.337Z,2.78
2023-08-17T14:28:44.526Z,2.95
2023-08-17T14:31:16.687Z,3.30
2023-08-17T14:33:43.300Z,2.95
2023-08-17T14:36:09.858Z,2.97
2023-08-17T14:38:37.037Z,3.00
2023-08-17T14:41:05.521Z,2.90
2023-08-17T14:43:32.129Z,3.08
2023-08-17T14:45:59.293Z,2.83
2023-08-17T14:48:26.094Z,3.15
2023-08-17T14:50:52.967Z,2.72
2023-08-17T14:53:19.560Z,2.95
2023-08-17T14:55:49.995Z,2.78
2023-08-17T14:58:17.221Z,2.53
2023-08-17T15:00:43.928Z,3.47
2023-08-17T15:03:10.668Z,2.90
2023-08-17T15:05:38.447Z,3.13
2023-08-17T15:08:05.461Z,2.72
2023-08-17T15:10:33.637Z,2.80
2023-08-17T15:13:00.212Z,2.60
2023-08-17T15:15:26.808Z,3.20
2023-08-17T15:17:53.442Z,2.72
2023-08-17T15:20:20.062Z,4.43
2023-08-17T15:22:46.647Z,3.30
2023-08-17T15:25:13.223Z,2.67
2023-08-17T15:27:39.823Z,2.38
2023-08-17T15:30:07.013Z,2.53
2023-08-17T15:32:33.749Z,2.90
2023-08-17T15:35:00.440Z,2.88
2023-08-17T15:37:27.485Z,3.35
2023-08-17T15:39:54.428Z,2.55
2023-08-17T15:42:20.989Z,2.95
2023-08-17T15:44:47.650Z,3.03
2023-08-17T15:47:14.230Z,4.00
2023-08-17T15:49:40.776Z,2.80
2023-08-17T15:52:08.894Z,3.20
2023-08-17T15:54:37.544Z,3.08
2023-08-17T15:57:06.845Z,3.40
2023-08-17T15:59:33.910Z,3.67
2023-08-17T16:02:00.473Z,3.30
2023-08-17T16:04:27.039Z,3.10
2023-08-17T16:06:53.754Z,3.22
2023-08-17T16:09:22.208Z,3.60
2023-08-17T16:11:48.991Z,3.10
2023-08-17T16:14:15.535Z,3.55
2023-08-17T16:16:42.124Z,2.97
2023-08-17T16:19:09.149Z,3.10
2023-08-17T16:21:38.049Z,2.63
2023-08-17T16:24:05.413Z,3.05
2023-08-17T16:26:34.619Z,3.20
2023-08-17T16:29:01.633Z,2.75
2023-08-17T16:31:28.387Z,3.47
2023-08-17T16:33:54.960Z,3.47
2023-08-17T16:36:21.596Z,3.70
2023-08-17T16:38:49.269Z,3.28
2023-08-17T16:41:21.643Z,2.95
2023-08-17T16:43:48.847Z,3.00
2023-08-17T16:46:16.028Z,3.60
2023-08-17T16:48:42.861Z,3.08
2023-08-17T16:51:09.412Z,3.83
2023-08-17T16:53:35.938Z,3.55
2023-08-17T16:56:02.874Z,4.00
2023-08-17T16:58:29.477Z,3.05
2023-08-17T17:00:56.104Z,2.95
2023-08-17T17:03:22.709Z,3.28
2023-08-17T17:05:49.258Z,3.03
2023-08-17T17:08:15.804Z,3.47
2023-08-17T17:10:42.364Z,3.88
2023-08-17T17:13:08.986Z,3.17
2023-08-17T17:15:35.685Z,3.20
2023-08-17T17:18:02.302Z,3.75
2023-08-17T17:20:28.946Z,3.22
2023-08-17T17:22:55.542Z,3.92
2023-08-17T17:25:22.088Z,3.17
2023-08-17T17:27:48.808Z,3.47
2023-08-17T17:30:15.398Z,3.58
2023-08-17T17:32:42.011Z,3.00
2023-08-17T17:35:08.593Z,2.80
2023-08-17T17:37:35.109Z,2.70
2023-08-17T17:40:01.799Z,3.47
2023-08-17T17:42:28.371Z,3.03
2023-08-17T17:44:57.927Z,3.13
2023-08-17T17:47:26.281Z,3.20
2023-08-17T17:49:53.097Z,3.55
2023-08-17T17:52:19.648Z,4.15
2023-08-17T17:54:46.270Z,4.22
2023-08-17T17:57:12.793Z,4.45
2023-08-17T17:59:39.357Z,4.13
2023-08-17T18:02:06.757Z,2.63
2023-08-17T18:04:33.411Z,2.83
2023-08-17T18:06:59.987Z,2.90
2023-08-17T18:09:27.488Z,3.15
2023-08-17T18:11:54.146Z,3.33
2023-08-17T18:14:20.793Z,4.07
2023-08-17T18:16:47.460Z,3.60
2023-08-17T18:19:14.152Z,3.15
2023-08-17T18:21:40.737Z,2.97
2023-08-17T18:24:08.349Z,5.13
2023-08-17T18:26:34.949Z,3.40
2023-08-17T18:29:02.491Z,3.70
2023-08-17T18:31:29.052Z,2.90
2023-08-17T18:33:55.755Z,3.53
2023-08-17T18:36:22.462Z,3.13
2023-08-17T18:38:49.114Z,3.92
2023-08-17T18:41:15.977Z,3.35
2023-08-17T18:43:42.554Z,4.78
2023-08-17T18:46:09.135Z,3.20
2023-08-17T18:48:35.796Z,3.88
2023-08-17T18:51:02.532Z,3.55
2023-08-17T18:53:29.124Z,3.33
2023-08-17T18:55:55.676Z,2.70
2023-08-17T18:58:22.220Z,3.08
2023-08-17T19:00:48.898Z,3.20
2023-08-17T19:03:15.619Z,3.20
2023-08-17T19:05:42.306Z,3.72
2023-08-17T19:08:08.911Z,3.53
2023-08-17T19:10:35.462Z,3.83
2023-08-17T19:13:01.986Z,4.25
2023-08-17T19:15:28.556Z,3.17
2023-08-17T19:17:55.158Z,3.38
2023-08-17T19:20:21.773Z,3.17
2023-08-17T19:22:48.324Z,3.47
2023-08-17T19:25:14.952Z,3.25
2023-08-17T19:27:41.601Z,3.70
2023-08-17T19:30:11.495Z,3.13
2023-08-17T19:32:41.249Z,3.13
2023-08-17T19:35:08.263Z,3.95
2023-08-17T19:37:35.308Z,3.80
2023-08-17T19:40:04.033Z,3.60
2023-08-17T19:42:30.906Z,4.00
2023-08-17T19:44:57.506Z,3.50
2023-08-17T19:47:24.154Z,3.08
2023-08-17T19:49:50.817Z,3.72
2023-08-17T19:52:17.765Z,4.03
2023-08-17T19:54:48.284Z,3.28
2023-08-17T19:57:15.026Z,3.95
2023-08-17T19:59:41.622Z,3.13
2023-08-17T20:02:08.205Z,4.20
2023-08-17T20:04:34.854Z,3.95
2023-08-17T20:07:01.460Z,4.00
2023-08-17T20:09:28.041Z,4.50
2023-08-17T20:11:54.581Z,3.85
2023-08-17T20:14:23.264Z,4.07
2023-08-17T20:16:51.403Z,3.97
2023-08-17T20:19:18.478Z,3.40
2023-08-17T20:21:45.277Z,4.20
2023-08-17T20:24:11.921Z,4.00
2023-08-17T20:26:38.550Z,3.90
2023-08-17T20:29:05.114Z,3.97
2023-08-17T20:31:31.885Z,4.60
2023-08-17T20:33:58.559Z,3.88
2023-08-17T20:36:25.105Z,5.80
2023-08-17T20:38:53.055Z,4.15
2023-08-17T20:41:20.861Z,4.80
2023-08-17T20:43:47.681Z,4.70
2023-08-17T20:46:14.501Z,4.03
2023-08-17T20:48:41.323Z,4.55
2023-08-17T20:51:08.742Z,5.05
2023-08-17T20:53:36.463Z,5.35
2023-08-17T20:56:03.960Z,4.30
2023-08-17T20:58:30.672Z,4.38
2023-08-17T21:00:59.354Z,3.85
2023-08-17T21:03:26.119Z,4.40
2023-08-17T21:05:52.783Z,4.65
2023-08-17T21:08:19.391Z,4.15
2023-08-17T21:10:48.783Z,3.67
2023-08-17T21:13:15.344Z,5.03
2023-08-17T21:15:41.983Z,5.45
2023-08-17T21:18:08.683Z,3.70
2023-08-17T21:20:35.485Z,3.85
2023-08-17T21:23:02.056Z,4.07
2023-08-17T21:25:28.613Z,3.58
2023-08-17T21:27:55.217Z,4.30
2023-08-17T21:30:22.204Z,4.70
2023-08-17T21:32:49.218Z,5.32
2023-08-17T21:35:15.847Z,5.05
2023-08-17T21:37:44.105Z,4.47
2023-08-17T21:40:14.759Z,4.70
2023-08-17T21:42:41.283Z,4.40
2023-08-17T21:45:08.611Z,4.53
2023-08-17T21:47:35.285Z,5.32
2023-08-17T21:50:01.986Z,3.67
2023-08-17T21:52:28.556Z,3.80
2023-08-17T21:54:55.120Z,3.72
2023-08-17T21:57:21.675Z,4.22
2023-08-17T21:59:48.226Z,4.10
2023-08-17T22:02:14.834Z,3.10
2023-08-17T22:04:41.391Z,3.25
2023-08-17T22:07:07.980Z,3.13
2023-08-17T22:09:34.773Z,3.75
2023-08-17T22:12:01.895Z,3.53
2023-08-17T22:14:30.301Z,2.55
2023-08-17T22:16:57.729Z,2.58
2023-08-17T22:19:24.988Z,3.58
2023-08-17T22:21:51.592Z,4.30
2023-08-17T22:24:18.221Z,3.45
2023-08-17T22:26:44.740Z,3.33
2023-08-17T22:29:11.376Z,3.90
2023-08-17T22:31:37.976Z,4.00
2023-08-17T22:34:04.551Z,3.67
2023-08-17T22:36:31.143Z,3.38
2023-08-17T22:38:57.705Z,3.83
2023-08-17T22:41:24.544Z,3.30
2023-08-17T22:43:51.165Z,3.22
2023-08-17T22:46:17.770Z,3.53
2023-08-17T22:48:44.777Z,2.33
2023-08-17T22:51:14.536Z,3.28
2023-08-17T22:53:42.069Z,3.25
2023-08-17T22:56:08.767Z,2.70
2023-08-17T22:58:35.379Z,2.88
2023-08-17T23:01:02.061Z,3.13
2023-08-17T23:03:28.691Z,2.70
2023-08-17T23:05:55.279Z,2.80
2023-08-17T23:08:21.951Z,2.60
2023-08-17T23:10:48.478Z,2.40
2023-08-17T23:13:15.068Z,2.83
2023-08-17T23:15:41.593Z,2.53
2023-08-17T23:18:08.191Z,2.35
2023-08-17T23:20:34.811Z,2.15
2023-08-17T23:23:01.356Z,2.30
2023-08-17T23:25:28.163Z,2.38
2023-08-17T23:27:55.630Z,2.55
2023-08-17T23:30:22.436Z,2.45
2023-08-17T23:32:51.486Z,3.10
2023-08-17T23:35:18.062Z,2.78
2023-08-17T23:37:44.650Z,3.13
2023-08-17T23:40:12.475Z,2.40
2023-08-17T23:42:39.023Z,2.53
2023-08-17T23:45:06.866Z,3.42
2023-08-17T23:47:33.500Z,4.10
2023-08-17T23:50:00.283Z,2.80
2023-08-17T23:52:26.822Z,3.67
2023-08-17T23:54:53.442Z,3.00
2023-08-17T23:57:19.983Z,2.80
2023-08-17T23:59:46.595Z,3.33
